createdAt,value
2023-05-09T00:01:15.120Z,2.85
2023-05-09T00:03:43.016Z,2.97
2023-05-09T00:06:11.526Z,2.83
2023-05-09T00:08:38.413Z,3.30
2023-05-09T00:11:05.444Z,3.47
2023-05-09T00:13:32.862Z,2.80
2023-05-09T00:15:59.705Z,2.60
2023-05-09T00:18:26.568Z,2.88
2023-05-09T00:20:53.416Z,2.97
2023-05-09T00:23:20.487Z,3.30
2023-05-09T00:25:47.302Z,2.92
2023-05-09T00:28:14.156Z,3.35
2023-05-09T00:30:40.976Z,3.45
2023-05-09T00:33:07.898Z,3.20
2023-05-09T00:35:35.182Z,3.35
2023-05-09T00:38:01.979Z,3.03
2023-05-09T00:40:29.243Z,2.60
2023-05-09T00:42:58.342Z,2.92
2023-05-09T00:45:25.597Z,3.13
2023-05-09T00:47:52.681Z,3.30
2023-05-09T00:50:19.706Z,3.08
2023-05-09T00:52:46.790Z,3.10
2023-05-09T00:55:14.391Z,2.78
2023-05-09T00:57:41.536Z,3.22
2023-05-09T01:00:13.205Z,3.25
2023-05-09T01:02:42.491Z,2.88
2023-05-09T01:05:09.996Z,3.35
2023-05-09T01:07:58.594Z,3.38
2023-05-09T01:10:36.214Z,3.20
2023-05-09T01:13:12.223Z,3.90
2023-05-09T01:18:19.324Z,2.90
2023-05-09T01:21:01.855Z,3.08
2023-05-09T01:23:44.230Z,3.63
2023-05-09T01:26:26.224Z,3.28
2023-05-09T01:29:04.737Z,3.42
2023-05-09T01:31:34.624Z,3.08
2023-05-09T01:34:04.117Z,3.55
2023-05-09T01:36:33.142Z,3.90
2023-05-09T01:39:02.072Z,3.00
2023-05-09T01:41:31.957Z,3.90
2023-05-09T01:44:02.165Z,3.97
2023-05-09T01:46:30.686Z,3.70
2023-05-09T01:48:58.909Z,3.28
2023-05-09T01:51:26.920Z,3.67
2023-05-09T01:53:56.663Z,3.92
2023-05-09T01:56:24.480Z,3.40
2023-05-09T01:58:52.981Z,3.58
2023-05-09T02:01:20.762Z,3.65
2023-05-09T02:03:50.661Z,4.03
2023-05-09T02:06:18.391Z,3.97
2023-05-09T02:08:45.870Z,4.38
2023-05-09T02:11:12.693Z,4.63
2023-05-09T02:13:39.766Z,3.58
2023-05-09T02:16:10.325Z,4.50
2023-05-09T02:18:37.337Z,3.88
2023-05-09T02:21:04.383Z,4.10
2023-05-09T02:23:31.811Z,3.95
2023-05-09T02:25:58.704Z,3.28
2023-05-09T02:28:27.992Z,3.90
2023-05-09T02:30:56.977Z,3.42
2023-05-09T02:33:24.314Z,4.20
2023-05-09T02:35:52.073Z,3.88
2023-05-09T02:38:19.499Z,4.45
2023-05-09T02:40:47.664Z,3.70
2023-05-09T02:43:15.348Z,4.03
2023-05-09T02:45:42.369Z,4.03
2023-05-09T02:48:09.628Z,3.70
2023-05-09T02:50:38.585Z,4.47
2023-05-09T02:53:06.226Z,3.63
2023-05-09T02:55:33.353Z,3.78
2023-05-09T02:58:12.606Z,3.90
2023-05-09T03:00:41.414Z,5.45
2023-05-09T03:03:08.936Z,4.40
2023-05-09T03:05:35.979Z,4.00
2023-05-09T03:08:02.790Z,3.72
2023-05-09T03:10:30.409Z,4.65
2023-05-09T03:12:57.344Z,4.00
2023-05-09T03:15:24.190Z,3.92
2023-05-09T03:17:51.560Z,3.60
2023-05-09T03:20:18.510Z,3.75
2023-05-09T03:22:45.347Z,3.92
2023-05-09T03:25:12.739Z,3.88
2023-05-09T03:27:39.833Z,3.65
2023-05-09T03:30:11.018Z,4.45
2023-05-09T03:32:38.028Z,3.60
2023-05-09T03:35:05.092Z,4.20
2023-05-09T03:37:32.805Z,4.10
2023-05-09T03:39:59.922Z,3.60
2023-05-09T03:42:27.593Z,4.00
2023-05-09T03:44:58.776Z,3.97
2023-05-09T03:47:25.596Z,4.00
2023-05-09T03:49:53.611Z,4.05
2023-05-09T03:52:22.498Z,4.13
2023-05-09T03:54:49.371Z,4.00
2023-05-09T03:57:16.598Z,3.58
2023-05-09T03:59:45.124Z,4.38
2023-05-09T04:02:13.437Z,3.88
2023-05-09T04:04:40.556Z,4.70
2023-05-09T04:07:08.176Z,4.40
2023-05-09T04:09:35.345Z,4.07
2023-05-09T04:12:02.877Z,3.67
2023-05-09T04:14:30.973Z,4.13
2023-05-09T04:16:58.630Z,3.63
2023-05-09T04:19:25.651Z,3.53
2023-05-09T04:21:52.648Z,3.85
2023-05-09T04:24:19.637Z,3.78
2023-05-09T04:26:48.322Z,3.85
2023-05-09T04:29:19.025Z,3.78
2023-05-09T04:31:51.261Z,4.32
2023-05-09T04:34:19.091Z,4.50
2023-05-09T04:36:46.169Z,3.78
2023-05-09T04:39:13.315Z,3.75
2023-05-09T04:41:49.838Z,4.25
2023-05-09T04:44:18.199Z,4.72
2023-05-09T04:46:45.352Z,4.35
2023-05-09T04:49:12.224Z,4.95
2023-05-09T04:51:39.011Z,4.53
2023-05-09T04:54:06.769Z,5.22
2023-05-09T04:56:37.086Z,5.30
2023-05-09T04:59:03.930Z,5.25
2023-05-09T05:01:31.061Z,4.38
2023-05-09T05:03:58.583Z,4.50
2023-05-09T05:06:25.440Z,4.40
2023-05-09T05:08:52.346Z,4.68
2023-05-09T05:11:20.536Z,4.57
2023-05-09T05:13:47.556Z,4.78
2023-05-09T05:16:14.535Z,4.72
2023-05-09T05:18:41.673Z,4.85
2023-05-09T05:21:08.878Z,4.20
2023-05-09T05:23:35.725Z,4.05
2023-05-09T05:26:02.959Z,4.57
2023-05-09T05:28:31.729Z,4.00
2023-05-09T05:30:58.799Z,4.43
2023-05-09T05:33:26.257Z,4.20
2023-05-09T05:35:53.572Z,4.13
2023-05-09T05:38:21.413Z,4.43
2023-05-09T05:40:51.644Z,4.35
2023-05-09T05:43:19.982Z,4.10
2023-05-09T05:45:46.866Z,5.35
2023-05-09T05:48:17.403Z,4.03
2023-05-09T05:50:44.306Z,4.43
2023-05-09T05:53:12.514Z,4.38
2023-05-09T05:55:40.184Z,4.72
2023-05-09T05:58:07.077Z,4.78
2023-05-09T06:00:34.578Z,5.32
2023-05-09T06:03:05.647Z,4.93
2023-05-09T06:05:44.562Z,4.80
2023-05-09T06:08:12.285Z,5.03
2023-05-09T06:10:39.132Z,4.60
2023-05-09T06:13:05.955Z,4.90
2023-05-09T06:15:33.608Z,4.53
2023-05-09T06:18:00.650Z,4.55
2023-05-09T06:20:27.984Z,5.57
2023-05-09T06:22:54.880Z,5.15
2023-05-09T06:25:22.110Z,5.00
2023-05-09T06:27:48.912Z,5.00
2023-05-09T06:30:25.789Z,6.05
2023-05-09T06:32:54.234Z,6.25
2023-05-09T06:35:21.203Z,6.18
2023-05-09T06:37:48.810Z,6.25
2023-05-09T06:40:16.610Z,5.90
2023-05-09T06:42:43.590Z,5.82
2023-05-09T06:45:11.133Z,5.45
2023-05-09T06:47:38.095Z,5.88
2023-05-09T06:50:05.351Z,6.75
2023-05-09T06:52:32.159Z,7.07
2023-05-09T06:54:58.979Z,6.70
2023-05-09T06:57:26.005Z,7.55
2023-05-09T06:59:52.933Z,7.20
2023-05-09T07:02:20.192Z,7.45
2023-05-09T07:04:47.215Z,7.32
2023-05-09T07:07:14.013Z,7.05
2023-05-09T07:09:40.817Z,6.82
2023-05-09T07:12:07.870Z,6.28
2023-05-09T07:14:34.680Z,6.00
2023-05-09T07:17:18.243Z,6.45
2023-05-09T07:19:48.368Z,6.80
2023-05-09T07:22:15.206Z,6.63
2023-05-09T07:24:42.110Z,6.07
2023-05-09T07:27:08.905Z,6.45
2023-05-09T07:29:36.527Z,5.93
2023-05-09T07:32:03.429Z,6.15
2023-05-09T07:34:30.384Z,6.30
2023-05-09T07:36:58.756Z,5.68
2023-05-09T07:39:26.122Z,5.70
2023-05-09T07:41:52.915Z,5.63
2023-05-09T07:44:19.710Z,6.10
2023-05-09T07:46:46.754Z,5.10
2023-05-09T07:49:13.594Z,5.70
2023-05-09T07:51:41.407Z,6.57
2023-05-09T07:54:10.018Z,6.25
2023-05-09T07:56:37.046Z,7.35
2023-05-09T07:59:03.933Z,5.57
2023-05-09T08:01:31.037Z,5.80
2023-05-09T08:03:57.981Z,6.75
2023-05-09T08:06:26.362Z,6.82
2023-05-09T08:08:53.128Z,7.05
2023-05-09T08:11:19.905Z,7.03
2023-05-09T08:13:48.129Z,7.40
2023-05-09T08:16:17.298Z,6.70
2023-05-09T08:18:44.693Z,7.57
2023-05-09T08:21:11.653Z,7.15
2023-05-09T08:23:38.649Z,7.13
2023-05-09T08:26:05.527Z,6.53
2023-05-09T08:28:32.428Z,6.80
2023-05-09T08:30:59.238Z,7.05
2023-05-09T08:33:26.057Z,6.32
2023-05-09T08:35:53.821Z,6.15
2023-05-09T08:38:20.959Z,6.13
2023-05-09T08:40:48.319Z,6.75
2023-05-09T08:43:19.210Z,6.22
2023-05-09T08:45:50.857Z,6.88
2023-05-09T08:48:18.705Z,6.53
2023-05-09T08:50:45.849Z,6.72
2023-05-09T08:53:13.585Z,6.13
2023-05-09T08:55:40.709Z,5.68
2023-05-09T08:58:09.538Z,5.22
2023-05-09T09:00:38.850Z,5.63
2023-05-09T09:03:07.700Z,6.53
2023-05-09T09:05:41.848Z,4.88
2023-05-09T09:08:11.053Z,5.07
2023-05-09T09:10:42.718Z,5.35
2023-05-09T09:13:11.401Z,5.05
2023-05-09T09:15:40.570Z,5.40
2023-05-09T09:18:10.195Z,6.38
2023-05-09T09:20:49.845Z,5.97
2023-05-09T09:23:22.252Z,5.47
2023-05-09T09:25:49.290Z,6.45
2023-05-09T09:28:17.958Z,6.10
2023-05-09T09:30:48.739Z,6.38
2023-05-09T09:33:22.357Z,6.15
2023-05-09T09:35:54.766Z,4.95
2023-05-09T09:38:23.192Z,5.68
2023-05-09T09:40:56.590Z,5.03
2023-05-09T09:43:30.476Z,4.57
2023-05-09T09:46:01.159Z,4.53
2023-05-09T09:48:32.238Z,5.05
2023-05-09T09:51:11.745Z,4.70
2023-05-09T09:53:45.074Z,4.60
2023-05-09T09:56:12.025Z,4.95
2023-05-09T09:58:39.246Z,4.78
2023-05-09T10:01:16.756Z,4.88
2023-05-09T10:03:48.097Z,4.50
2023-05-09T10:06:16.495Z,4.65
2023-05-09T10:08:49.267Z,4.70
2023-05-09T10:11:16.359Z,4.22
2023-05-09T10:13:44.619Z,4.60
2023-05-09T10:16:12.858Z,4.60
2023-05-09T10:18:42.517Z,4.45
2023-05-09T10:21:14.467Z,4.32
2023-05-09T10:23:45.979Z,4.70
2023-05-09T10:26:29.008Z,4.63
2023-05-09T10:28:57.924Z,4.88
2023-05-09T10:31:31.939Z,4.13
2023-05-09T10:34:02.177Z,3.95
2023-05-09T10:36:29.407Z,4.60
2023-05-09T10:38:56.577Z,4.05
2023-05-09T10:41:24.036Z,4.05
2023-05-09T10:43:51.675Z,3.88
2023-05-09T10:46:19.020Z,3.72
2023-05-09T10:48:48.071Z,3.88
2023-05-09T10:51:16.365Z,3.50
2023-05-09T10:53:44.819Z,3.70
2023-05-09T10:56:32.541Z,3.45
2023-05-09T10:59:00.181Z,3.45
2023-05-09T11:01:37.265Z,4.70
2023-05-09T11:04:16.587Z,3.67
2023-05-09T11:06:52.177Z,3.53
2023-05-09T11:12:09.740Z,2.92
2023-05-09T11:14:44.750Z,3.40
2023-05-09T11:17:15.585Z,3.38
2023-05-09T11:19:45.512Z,3.33
2023-05-09T11:22:17.497Z,3.13
2023-05-09T11:24:52.462Z,3.10
2023-05-09T11:27:24.013Z,2.97
2023-05-09T11:29:55.417Z,3.13
2023-05-09T11:32:27.722Z,2.75
2023-05-09T11:35:17.663Z,2.65
2023-05-09T11:37:52.340Z,2.30
2023-05-09T11:40:20.974Z,2.45
2023-05-09T11:42:58.292Z,2.38
2023-05-09T11:45:30.953Z,2.58
2023-05-09T11:47:58.465Z,3.08
2023-05-09T11:50:25.547Z,2.25
2023-05-09T11:52:53.623Z,2.60
2023-05-09T11:55:25.671Z,2.30
2023-05-09T11:57:54.488Z,2.05
2023-05-09T12:00:23.465Z,2.17
2023-05-09T12:02:51.497Z,1.92
2023-05-09T12:05:20.442Z,2.20
2023-05-09T12:07:47.967Z,2.25
2023-05-09T12:10:17.080Z,2.58
2023-05-09T12:12:46.547Z,2.35
2023-05-09T12:15:14.455Z,1.75
2023-05-09T12:17:47.134Z,2.10
2023-05-09T12:20:15.154Z,1.63
2023-05-09T12:22:52.563Z,1.85
2023-05-09T12:25:19.366Z,1.85
2023-05-09T12:27:46.251Z,1.48
2023-05-09T12:30:16.052Z,1.45
2023-05-09T12:32:43.813Z,1.30
2023-05-09T12:35:11.218Z,1.48
2023-05-09T12:37:38.617Z,1.58
2023-05-09T12:40:13.152Z,1.90
2023-05-09T12:42:43.311Z,1.48
2023-05-09T12:45:11.227Z,1.60
2023-05-09T12:47:39.181Z,1.33
2023-05-09T12:50:07.568Z,1.48
2023-05-09T12:52:39.765Z,1.50
2023-05-09T12:55:14.342Z,1.52
2023-05-09T12:57:43.212Z,1.70
2023-05-09T13:00:12.223Z,1.50
2023-05-09T13:02:42.403Z,1.30
2023-05-09T13:05:11.071Z,1.77
2023-05-09T13:07:55.094Z,1.45
2023-05-09T13:10:28.536Z,1.40
2023-05-09T13:12:55.635Z,1.35
2023-05-09T13:15:23.434Z,1.63
2023-05-09T13:17:51.895Z,1.48
2023-05-09T13:20:19.826Z,1.45
2023-05-09T13:22:47.540Z,1.58
2023-05-09T13:25:14.467Z,1.90
2023-05-09T13:27:41.377Z,1.60
2023-05-09T13:30:08.562Z,1.52
2023-05-09T13:32:36.564Z,1.52
2023-05-09T13:35:06.668Z,1.55
2023-05-09T13:37:34.698Z,1.40
2023-05-09T13:40:02.311Z,1.38
2023-05-09T13:42:29.129Z,1.25
2023-05-09T13:44:55.941Z,1.70
2023-05-09T13:47:23.049Z,1.45
2023-05-09T13:49:49.973Z,2.00
2023-05-09T13:52:16.944Z,1.48
2023-05-09T13:54:44.035Z,1.80
2023-05-09T13:57:11.642Z,1.60
2023-05-09T13:59:40.991Z,2.28
2023-05-09T14:02:08.333Z,2.10
2023-05-09T14:04:35.158Z,2.05
2023-05-09T14:07:02.042Z,1.85
2023-05-09T14:09:29.819Z,1.95
2023-05-09T14:11:57.368Z,2.13
2023-05-09T14:14:25.899Z,2.30
2023-05-09T14:16:53.961Z,2.20
2023-05-09T14:19:20.805Z,2.50
2023-05-09T14:21:47.576Z,2.15
2023-05-09T14:24:16.128Z,2.45
2023-05-09T14:26:43.747Z,2.25
2023-05-09T14:29:11.261Z,2.50
2023-05-09T14:31:38.284Z,2.97
2023-05-09T14:34:06.170Z,2.13
2023-05-09T14:36:33.090Z,2.00
2023-05-09T14:38:59.968Z,2.03
2023-05-09T14:41:27.274Z,2.35
2023-05-09T14:43:54.093Z,1.85
2023-05-09T14:46:20.992Z,2.38
2023-05-09T14:48:47.845Z,1.88
2023-05-09T14:51:14.640Z,1.95
2023-05-09T14:53:41.996Z,2.28
2023-05-09T14:56:11.524Z,1.80
2023-05-09T14:58:38.549Z,2.35
2023-05-09T15:01:05.400Z,2.45
2023-05-09T15:03:32.346Z,2.20
2023-05-09T15:05:59.320Z,2.30
2023-05-09T15:08:27.335Z,2.00
2023-05-09T15:10:54.630Z,2.45
2023-05-09T15:13:21.715Z,2.40
2023-05-09T15:15:48.871Z,2.60
2023-05-09T15:18:17.050Z,3.00
2023-05-09T15:20:44.107Z,2.17
2023-05-09T15:23:13.294Z,2.45
2023-05-09T15:25:41.653Z,2.53
2023-05-09T15:28:08.433Z,2.30
2023-05-09T15:30:38.336Z,2.13
2023-05-09T15:33:05.559Z,2.13
2023-05-09T15:35:32.508Z,2.83
2023-05-09T15:37:59.739Z,2.08
2023-05-09T15:40:27.924Z,1.88
2023-05-09T15:42:54.871Z,2.17
2023-05-09T15:45:21.694Z,2.10
2023-05-09T15:47:48.627Z,2.78
2023-05-09T15:50:16.122Z,2.28
2023-05-09T15:52:43.295Z,2.47
2023-05-09T15:55:10.661Z,2.55
2023-05-09T15:57:37.596Z,3.00
2023-05-09T16:00:05.604Z,2.17
2023-05-09T16:02:39.599Z,2.22
2023-05-09T16:05:07.421Z,1.95
2023-05-09T16:07:35.771Z,2.38
2023-05-09T16:10:03.317Z,1.98
2023-05-09T16:12:32.862Z,2.00
2023-05-09T16:14:59.856Z,2.25
2023-05-09T16:17:26.788Z,2.10
2023-05-09T16:19:55.205Z,2.50
2023-05-09T16:22:22.100Z,2.08
2023-05-09T16:24:49.202Z,2.45
2023-05-09T16:27:16.469Z,2.30
2023-05-09T16:29:43.293Z,2.70
2023-05-09T16:32:10.293Z,2.15
2023-05-09T16:34:37.400Z,2.10
2023-05-09T16:37:04.388Z,2.65
2023-05-09T16:39:31.464Z,2.35
2023-05-09T16:41:58.287Z,2.80
2023-05-09T16:44:25.873Z,2.63
2023-05-09T16:46:52.683Z,3.30
2023-05-09T16:49:19.486Z,2.95
2023-05-09T16:51:46.484Z,2.50
2023-05-09T16:54:13.304Z,2.67
2023-05-09T16:56:40.138Z,2.80
2023-05-09T16:59:07.427Z,2.53
2023-05-09T17:01:34.346Z,3.22
2023-05-09T17:04:01.741Z,3.10
2023-05-09T17:06:28.626Z,2.95
2023-05-09T17:08:55.529Z,3.40
2023-05-09T17:11:22.759Z,3.35
2023-05-09T17:13:49.613Z,2.58
2023-05-09T17:16:16.464Z,2.42
2023-05-09T17:18:47.316Z,1.77
2023-05-09T17:21:15.304Z,1.95
2023-05-09T17:23:42.277Z,1.77
2023-05-09T17:26:09.283Z,1.65
2023-05-09T17:28:36.919Z,1.65
2023-05-09T17:31:03.952Z,1.77
2023-05-09T17:33:30.813Z,1.77
2023-05-09T17:35:58.508Z,1.80
2023-05-09T17:38:25.330Z,1.75
2023-05-09T17:40:52.173Z,1.70
2023-05-09T17:43:19.047Z,2.08
2023-05-09T17:45:46.390Z,1.98
2023-05-09T17:48:13.635Z,2.42
2023-05-09T17:50:40.544Z,1.92
2023-05-09T17:53:09.400Z,2.53
2023-05-09T17:55:36.322Z,1.67
2023-05-09T17:58:03.130Z,1.85
2023-05-09T18:00:30.045Z,1.88
2023-05-09T18:03:00.960Z,2.08
2023-05-09T18:05:28.076Z,2.10
2023-05-09T18:07:55.001Z,1.70
2023-05-09T18:10:22.169Z,1.90
2023-05-09T18:12:49.021Z,1.90
2023-05-09T18:15:15.859Z,2.47
2023-05-09T18:17:42.936Z,2.08
2023-05-09T18:20:09.955Z,1.90
2023-05-09T18:22:37.352Z,1.92
2023-05-09T18:25:04.443Z,1.90
2023-05-09T18:27:31.324Z,2.40
2023-05-09T18:29:58.154Z,2.83
2023-05-09T18:32:25.036Z,2.50
2023-05-09T18:34:52.502Z,2.92
2023-05-09T18:37:19.316Z,3.15
2023-05-09T18:39:48.059Z,3.10
2023-05-09T18:42:16.468Z,2.53
2023-05-09T18:44:43.410Z,2.83
2023-05-09T18:47:10.678Z,3.05
2023-05-09T18:49:38.618Z,3.10
2023-05-09T18:52:05.435Z,2.80
2023-05-09T18:54:32.347Z,3.00
2023-05-09T18:56:59.137Z,1.98
2023-05-09T18:59:26.025Z,1.45
2023-05-09T19:01:53.158Z,1.80
2023-05-09T19:04:21.571Z,1.63
2023-05-09T19:06:48.589Z,1.25
2023-05-09T19:09:15.423Z,1.20
2023-05-09T19:11:42.269Z,0.90
2023-05-09T19:14:09.203Z,1.10
2023-05-09T19:16:36.484Z,0.90
2023-05-09T19:19:03.567Z,0.85
2023-05-09T19:21:30.446Z,0.98
2023-05-09T19:23:57.319Z,1.27
2023-05-09T19:26:24.083Z,1.00
2023-05-09T19:28:50.901Z,0.80
2023-05-09T19:31:18.802Z,1.15
2023-05-09T19:33:47.577Z,0.88
2023-05-09T19:36:14.377Z,0.90
2023-05-09T19:38:41.252Z,0.75
2023-05-09T19:41:08.059Z,1.23
2023-05-09T19:43:34.934Z,0.85
2023-05-09T19:46:01.722Z,1.30
2023-05-09T19:48:28.570Z,1.00
2023-05-09T19:50:59.515Z,0.80
2023-05-09T19:53:26.403Z,1.33
2023-05-09T19:55:53.572Z,1.15
2023-05-09T19:58:20.428Z,1.10
2023-05-09T20:00:48.049Z,0.95
2023-05-09T20:03:14.997Z,1.00
2023-05-09T20:05:41.831Z,0.93
2023-05-09T20:08:09.369Z,0.93
2023-05-09T20:10:36.254Z,0.98
2023-05-09T20:13:06.857Z,0.98
2023-05-09T20:15:33.761Z,1.40
2023-05-09T20:18:03.533Z,1.20
2023-05-09T20:20:33.697Z,1.48
2023-05-09T20:23:00.677Z,1.10
2023-05-09T20:25:27.558Z,1.40
2023-05-09T20:27:54.348Z,1.10
2023-05-09T20:30:21.201Z,1.17
2023-05-09T20:32:48.120Z,1.02
2023-05-09T20:35:15.344Z,1.17
2023-05-09T20:37:42.359Z,1.33
2023-05-09T20:40:09.686Z,1.40
2023-05-09T20:42:36.532Z,1.42
2023-05-09T20:45:03.815Z,0.90
2023-05-09T20:47:30.747Z,1.00
2023-05-09T20:50:13.041Z,1.10
2023-05-09T20:52:39.854Z,0.90
2023-05-09T20:55:07.007Z,1.20
2023-05-09T20:57:33.848Z,1.30
2023-05-09T21:00:00.737Z,1.27
2023-05-09T21:02:28.137Z,1.40
2023-05-09T21:04:55.010Z,1.17
2023-05-09T21:07:21.864Z,1.05
2023-05-09T21:09:49.732Z,1.00
2023-05-09T21:12:16.979Z,1.08
2023-05-09T21:14:44.823Z,1.10
2023-05-09T21:17:11.854Z,1.30
2023-05-09T21:19:38.866Z,0.80
2023-05-09T21:22:05.795Z,0.77
2023-05-09T21:24:32.616Z,1.08
2023-05-09T21:26:59.441Z,1.00
2023-05-09T21:29:26.473Z,0.77
2023-05-09T21:31:53.429Z,0.85
2023-05-09T21:34:20.751Z,0.60
2023-05-09T21:36:47.557Z,0.75
2023-05-09T21:39:14.590Z,0.77
2023-05-09T21:41:42.818Z,1.00
2023-05-09T21:44:11.493Z,1.00
2023-05-09T21:46:38.534Z,0.88
2023-05-09T21:49:05.759Z,1.00
2023-05-09T21:51:33.506Z,0.77
2023-05-09T21:54:01.161Z,0.77
2023-05-09T21:56:28.039Z,0.80
2023-05-09T21:58:54.903Z,0.63
2023-05-09T22:01:21.807Z,0.55
2023-05-09T22:03:48.845Z,0.63
2023-05-09T22:06:15.783Z,0.73
2023-05-09T22:08:42.568Z,0.80
2023-05-09T22:11:09.360Z,0.70
2023-05-09T22:13:36.410Z,0.93
2023-05-09T22:16:04.076Z,0.75
2023-05-09T22:18:31.408Z,0.95
2023-05-09T22:20:58.951Z,0.70
2023-05-09T22:23:25.794Z,0.88
2023-05-09T22:25:52.806Z,0.60
2023-05-09T22:28:19.722Z,0.80
2023-05-09T22:30:47.094Z,1.48
2023-05-09T22:33:13.944Z,0.95
2023-05-09T22:35:40.834Z,1.30
2023-05-09T22:38:07.669Z,0.98
2023-05-09T22:40:35.018Z,0.85
2023-05-09T22:43:01.870Z,0.93
2023-05-09T22:45:28.694Z,0.82
2023-05-09T22:47:55.562Z,0.65
2023-05-09T22:50:22.364Z,0.90
2023-05-09T22:52:49.124Z,1.02
2023-05-09T22:55:15.896Z,0.68
2023-05-09T22:57:42.750Z,0.77
2023-05-09T23:00:10.076Z,1.05
2023-05-09T23:02:37.325Z,1.08
2023-05-09T23:05:04.527Z,1.30
2023-05-09T23:07:31.524Z,1.20
2023-05-09T23:09:58.422Z,1.05
2023-05-09T23:12:25.265Z,1.00
2023-05-09T23:14:52.084Z,0.82
2023-05-09T23:17:18.877Z,0.80
2023-05-09T23:19:46.211Z,0.80
2023-05-09T23:22:12.986Z,0.70
2023-05-09T23:24:39.798Z,0.50
2023-05-09T23:27:06.893Z,0.60
2023-05-09T23:29:33.760Z,0.60
2023-05-09T23:32:00.589Z,0.57
2023-05-09T23:34:27.344Z,0.60
2023-05-09T23:36:54.209Z,0.65
2023-05-09T23:39:20.983Z,0.57
2023-05-09T23:41:48.049Z,0.45
2023-05-09T23:44:14.830Z,0.50
2023-05-09T23:46:41.636Z,0.35
2023-05-09T23:49:08.496Z,0.63
2023-05-09T23:51:35.287Z,0.50
2023-05-09T23:54:02.119Z,0.63
2023-05-09T23:56:28.935Z,0.65
2023-05-09T23:58:55.830Z,0.70
